Terminal Aerodrome Forecast
Issued by NWS

Home | Current Version | Previous Version | Graphics & Text | Print | Product List | Glossary On
Versions: 1 2 3 4 5 6 7 8 9 10 11 12 13
166
FTUS43 KTOP 251134
TAFMHK
TAF
KMHK 251134Z 2512/2612 35010KT P6SM BKN050
      TEMPO 2512/2514 35012G22KT SCT006 BKN025=

USA.gov is the U.S. government's official web portal to all federal, state and local government web resources and services.